sensor_id;sensor_type;location;lat;lon;timestamp;pressure;altitude;pressure_sealevel;temperature;humidity
1832;BME280;1680;48.106;11.708;2023-11-19T00:00:06;95612.97;;;6.01;100.00
1832;BME280;1680;48.106;11.708;2023-11-19T00:02:37;95618.16;;;5.94;100.00
1832;BME280;1680;48.106;11.708;2023-11-19T00:05:06;95618.59;;;5.98;100.00
1832;BME280;1680;48.106;11.708;2023-11-19T00:07:35;95620.59;;;6.02;100.00
1832;BME280;1680;48.106;11.708;2023-11-19T00:10:03;95612.31;;;5.92;100.00
1832;BME280;1680;48.106;11.708;2023-11-19T00:12:32;95610.13;;;5.89;100.00
1832;BME280;1680;48.106;11.708;2023-11-19T00:14:59;95603.72;;;5.92;100.00
1832;BME280;1680;48.106;11.708;2023-11-19T00:17:25;95594.53;;;5.96;100.00
1832;BME280;1680;48.106;11.708;2023-11-19T00:19:52;95585.16;;;6.01;100.00
1832;BME280;1680;48.106;11.708;2023-11-19T00:22:21;95583.97;;;6.04;100.00
1832;BME280;1680;48.106;11.708;2023-11-19T00:24:48;95583.16;;;6.03;100.00
1832;BME280;1680;48.106;11.708;2023-11-19T00:27:15;95570.91;;;5.97;100.00
1832;BME280;1680;48.106;11.708;2023-11-19T00:29:42;95567.31;;;5.98;100.00
1832;BME280;1680;48.106;11.708;2023-11-19T00:32:11;95570.53;;;6.00;100.00
1832;BME280;1680;48.106;11.708;2023-11-19T00:34:38;95571.03;;;6.23;100.00
1832;BME280;1680;48.106;11.708;2023-11-19T00:37:05;95568.16;;;6.05;100.00
1832;BME280;1680;48.106;11.708;2023-11-19T00:39:34;95566.56;;;6.04;100.00
1832;BME280;1680;48.106;11.708;2023-11-19T00:42:01;95563.34;;;6.02;100.00
1832;BME280;1680;48.106;11.708;2023-11-19T00:44:29;95558.50;;;5.99;100.00
1832;BME280;1680;48.106;11.708;2023-11-19T00:46:56;95561.72;;;6.01;100.00
1832;BME280;1680;48.106;11.708;2023-11-19T00:49:24;95554.16;;;6.06;100.00
1832;BME280;1680;48.106;11.708;2023-11-19T00:51:52;95553.75;;;6.09;100.00
1832;BME280;1680;48.106;11.708;2023-11-19T00:54:19;95548.78;;;6.14;100.00
1832;BME280;1680;48.106;11.708;2023-11-19T00:56:47;95542.38;;;6.23;100.00
1832;BME280;1680;48.106;11.708;2023-11-19T00:59:17;95539.00;;;6.23;100.00
1832;BME280;1680;48.106;11.708;2023-11-19T01:01:44;95540.97;;;6.21;100.00
1832;BME280;1680;48.106;11.708;2023-11-19T01:04:13;95533.56;;;6.24;100.00
1832;BME280;1680;48.106;11.708;2023-11-19T01:06:40;95543.00;;;6.25;100.00
1832;BME280;1680;48.106;11.708;2023-11-19T01:09:08;95542.59;;;6.28;100.00
1832;BME280;1680;48.106;11.708;2023-11-19T01:11:35;95550.41;;;6.28;100.00
1832;BME280;1680;48.106;11.708;2023-11-19T01:14:04;95536.22;;;6.37;100.00
1832;BME280;1680;48.106;11.708;2023-11-19T01:16:31;95537.81;;;6.38;100.00
1832;BME280;1680;48.106;11.708;2023-11-19T01:18:59;95529.22;;;6.38;100.00
1832;BME280;1680;48.106;11.708;2023-11-19T01:21:29;95531.81;;;6.38;100.00
1832;BME280;1680;48.106;11.708;2023-11-19T01:23:57;95541.25;;;6.39;100.00
1832;BME280;1680;48.106;11.708;2023-11-19T01:26:24;95538.63;;;6.39;100.00
1832;BME280;1680;48.106;11.708;2023-11-19T01:28:52;95526.41;;;6.39;100.00
1832;BME280;1680;48.106;11.708;2023-11-19T01:31:20;95520.63;;;6.44;100.00
1832;BME280;1680;48.106;11.708;2023-11-19T01:33:47;95519.81;;;6.43;100.00
1832;BME280;1680;48.106;11.708;2023-11-19T01:36:14;95522.22;;;6.45;100.00
1832;BME280;1680;48.106;11.708;2023-11-19T01:38:42;95507.00;;;6.42;100.00
1832;BME280;1680;48.106;11.708;2023-11-19T01:41:09;95505.41;;;6.47;100.00
1832;BME280;1680;48.106;11.708;2023-11-19T01:43:37;95502.00;;;6.53;100.00
1832;BME280;1680;48.106;11.708;2023-11-19T01:46:06;95496.22;;;6.58;100.00
1832;BME280;1680;48.106;11.708;2023-11-19T01:48:39;95501.00;;;6.54;100.00
1832;BME280;1680;48.106;11.708;2023-11-19T01:51:08;95497.41;;;6.62;100.00
1832;BME280;1680;48.106;11.708;2023-11-19T01:53:36;95490.19;;;6.64;100.00
1832;BME280;1680;48.106;11.708;2023-11-19T01:56:07;95492.41;;;6.60;100.00
1832;BME280;1680;48.106;11.708;2023-11-19T01:58:35;95488.19;;;6.59;100.00
1832;BME280;1680;48.106;11.708;2023-11-19T02:01:05;95488.56;;;6.69;100.00
1832;BME280;1680;48.106;11.708;2023-11-19T02:03:33;95490.63;;;6.80;100.00
1832;BME280;1680;48.106;11.708;2023-11-19T02:06:02;95487.19;;;6.73;100.00
1832;BME280;1680;48.106;11.708;2023-11-19T02:08:30;95469.78;;;6.80;100.00
1832;BME280;1680;48.106;11.708;2023-11-19T02:10:57;95472.78;;;6.77;100.00
1832;BME280;1680;48.106;11.708;2023-11-19T02:13:25;95461.94;;;6.80;100.00
1832;BME280;1680;48.106;11.708;2023-11-19T02:15:54;95459.13;;;6.94;100.00
1832;BME280;1680;48.106;11.708;2023-11-19T02:18:22;95451.72;;;6.78;100.00
1832;BME280;1680;48.106;11.708;2023-11-19T02:20:54;95445.72;;;6.78;100.00
1832;BME280;1680;48.106;11.708;2023-11-19T02:23:24;95439.28;;;6.80;100.00
1832;BME280;1680;48.106;11.708;2023-11-19T02:26:03;95431.66;;;6.85;100.00
1832;BME280;1680;48.106;11.708;2023-11-19T02:28:35;95423.03;;;6.85;100.00
1832;BME280;1680;48.106;11.708;2023-11-19T02:31:03;95430.25;;;6.83;100.00
1832;BME280;1680;48.106;11.708;2023-11-19T02:33:34;95418.03;;;6.83;100.00
1832;BME280;1680;48.106;11.708;2023-11-19T02:36:02;95420.41;;;6.91;100.00
1832;BME280;1680;48.106;11.708;2023-11-19T02:38:29;95418.19;;;7.08;100.00
1832;BME280;1680;48.106;11.708;2023-11-19T02:40:57;95407.97;;;7.00;100.00
1832;BME280;1680;48.106;11.708;2023-11-19T02:43:24;95408.78;;;7.07;100.00
1832;BME280;1680;48.106;11.708;2023-11-19T02:45:52;95413.00;;;7.08;100.00
1832;BME280;1680;48.106;11.708;2023-11-19T02:48:21;95408.56;;;7.02;100.00
1832;BME280;1680;48.106;11.708;2023-11-19T02:50:48;95403.16;;;6.97;100.00
1832;BME280;1680;48.106;11.708;2023-11-19T02:53:15;95413.78;;;7.02;100.00
1832;BME280;1680;48.106;11.708;2023-11-19T02:55:43;95406.78;;;7.02;100.00
1832;BME280;1680;48.106;11.708;2023-11-19T02:58:14;95391.53;;;7.06;100.00
1832;BME280;1680;48.106;11.708;2023-11-19T03:00:49;95387.69;;;7.15;100.00
1832;BME280;1680;48.106;11.708;2023-11-19T03:03:24;95369.03;;;7.18;100.00
1832;BME280;1680;48.106;11.708;2023-11-19T03:05:54;95376.63;;;7.19;100.00
1832;BME280;1680;48.106;11.708;2023-11-19T03:08:21;95373.84;;;7.21;100.00
1832;BME280;1680;48.106;11.708;2023-11-19T03:10:49;95344.59;;;7.06;100.00
1832;BME280;1680;48.106;11.708;2023-11-19T03:13:16;95373.59;;;7.29;100.00
1832;BME280;1680;48.106;11.708;2023-11-19T03:15:43;95377.03;;;7.29;100.00
1832;BME280;1680;48.106;11.708;2023-11-19T03:18:11;95372.78;;;7.35;100.00
1832;BME280;1680;48.106;11.708;2023-11-19T03:20:41;95366.97;;;7.33;100.00
1832;BME280;1680;48.106;11.708;2023-11-19T03:23:08;95363.97;;;7.36;100.00
1832;BME280;1680;48.106;11.708;2023-11-19T03:25:35;95362.09;;;7.43;100.00
1832;BME280;1680;48.106;11.708;2023-11-19T03:28:03;95359.72;;;7.41;100.00
1832;BME280;1680;48.106;11.708;2023-11-19T03:30:31;95350.50;;;7.39;100.00
1832;BME280;1680;48.106;11.708;2023-11-19T03:32:59;95362.91;;;7.50;100.00
1832;BME280;1680;48.106;11.708;2023-11-19T03:35:26;95367.47;;;7.54;100.00
1832;BME280;1680;48.106;11.708;2023-11-19T03:37:55;95364.25;;;7.59;100.00
1832;BME280;1680;48.106;11.708;2023-11-19T03:40:23;95357.88;;;7.55;100.00
1832;BME280;1680;48.106;11.708;2023-11-19T03:42:50;95352.41;;;7.63;100.00
1832;BME280;1680;48.106;11.708;2023-11-19T03:45:17;95353.00;;;7.65;100.00
1832;BME280;1680;48.106;11.708;2023-11-19T03:47:45;95361.22;;;7.62;100.00
1832;BME280;1680;48.106;11.708;2023-11-19T03:50:12;95349.59;;;7.58;100.00
1832;BME280;1680;48.106;11.708;2023-11-19T03:52:41;95355.81;;;7.63;100.00
1832;BME280;1680;48.106;11.708;2023-11-19T03:55:10;95369.44;;;7.71;100.00
1832;BME280;1680;48.106;11.708;2023-11-19T03:57:38;95371.63;;;7.68;100.00
1832;BME280;1680;48.106;11.708;2023-11-19T04:00:06;95355.19;;;7.68;100.00
1832;BME280;1680;48.106;11.708;2023-11-19T04:02:35;95355.19;;;7.68;100.00
1832;BME280;1680;48.106;11.708;2023-11-19T04:05:03;95365.97;;;7.77;100.00
1832;BME280;1680;48.106;11.708;2023-11-19T04:07:30;95350.91;;;7.79;100.00
1832;BME280;1680;48.106;11.708;2023-11-19T04:09:58;95351.91;;;7.78;100.00
1832;BME280;1680;48.106;11.708;2023-11-19T04:12:26;95351.09;;;7.84;100.00
1832;BME280;1680;48.106;11.708;2023-11-19T04:14:53;95354.69;;;7.83;100.00
1832;BME280;1680;48.106;11.708;2023-11-19T04:17:21;95363.13;;;7.85;100.00
1832;BME280;1680;48.106;11.708;2023-11-19T04:19:49;95361.44;;;7.97;100.00
1832;BME280;1680;48.106;11.708;2023-11-19T04:22:16;95363.03;;;7.98;100.00
1832;BME280;1680;48.106;11.708;2023-11-19T04:24:43;95367.84;;;8.01;100.00
1832;BME280;1680;48.106;11.708;2023-11-19T04:27:11;95369.06;;;7.99;100.00
1832;BME280;1680;48.106;11.708;2023-11-19T04:29:39;95357.00;;;7.98;100.00
1832;BME280;1680;48.106;11.708;2023-11-19T04:32:06;95365.25;;;8.01;100.00
1832;BME280;1680;48.106;11.708;2023-11-19T04:34:34;95369.88;;;7.99;100.00
1832;BME280;1680;48.106;11.708;2023-11-19T04:37:03;95356.91;;;8.17;100.00
1832;BME280;1680;48.106;11.708;2023-11-19T04:39:30;95370.38;;;8.21;100.00
1832;BME280;1680;48.106;11.708;2023-11-19T04:41:57;95370.56;;;8.19;100.00
1832;BME280;1680;48.106;11.708;2023-11-19T04:44:24;95378.19;;;8.21;100.00
1832;BME280;1680;48.106;11.708;2023-11-19T04:46:53;95373.75;;;8.21;100.00
1832;BME280;1680;48.106;11.708;2023-11-19T04:49:20;95365.50;;;8.24;100.00
1832;BME280;1680;48.106;11.708;2023-11-19T04:51:47;95366.88;;;8.27;100.00
1832;BME280;1680;48.106;11.708;2023-11-19T04:54:14;95367.81;;;8.39;100.00
1832;BME280;1680;48.106;11.708;2023-11-19T04:56:45;95349.13;;;8.35;100.00
1832;BME280;1680;48.106;11.708;2023-11-19T04:59:12;95370.28;;;8.58;100.00
1832;BME280;1680;48.106;11.708;2023-11-19T05:01:40;95370.00;;;8.66;100.00
1832;BME280;1680;48.106;11.708;2023-11-19T05:04:08;95332.81;;;8.64;100.00
1832;BME280;1680;48.106;11.708;2023-11-19T05:06:36;95371.88;;;9.01;100.00
1832;BME280;1680;48.106;11.708;2023-11-19T05:09:03;95373.56;;;9.14;100.00
1832;BME280;1680;48.106;11.708;2023-11-19T05:11:32;95370.72;;;9.33;100.00
1832;BME280;1680;48.106;11.708;2023-11-19T05:13:59;95369.78;;;9.46;100.00
1832;BME280;1680;48.106;11.708;2023-11-19T05:16:29;95386.19;;;9.70;100.00
1832;BME280;1680;48.106;11.708;2023-11-19T05:18:56;95380.22;;;9.81;100.00
1832;BME280;1680;48.106;11.708;2023-11-19T05:21:24;95338.31;;;9.52;100.00
1832;BME280;1680;48.106;11.708;2023-11-19T05:23:52;95382.63;;;9.83;100.00
1832;BME280;1680;48.106;11.708;2023-11-19T05:26:20;95388.47;;;9.96;100.00
1832;BME280;1680;48.106;11.708;2023-11-19T05:28:47;95389.81;;;9.87;100.00
1832;BME280;1680;48.106;11.708;2023-11-19T05:31:16;95387.69;;;9.96;100.00
1832;BME280;1680;48.106;11.708;2023-11-19T05:33:44;95406.53;;;10.04;100.00
1832;BME280;1680;48.106;11.708;2023-11-19T05:36:11;95401.56;;;10.14;100.00
1832;BME280;1680;48.106;11.708;2023-11-19T05:38:40;95408.31;;;10.22;100.00
1832;BME280;1680;48.106;11.708;2023-11-19T05:41:07;95397.03;;;10.21;100.00
1832;BME280;1680;48.106;11.708;2023-11-19T05:43:34;95395.94;;;10.29;100.00
1832;BME280;1680;48.106;11.708;2023-11-19T05:46:03;95402.63;;;10.25;100.00
1832;BME280;1680;48.106;11.708;2023-11-19T05:48:30;95403.69;;;10.35;100.00
1832;BME280;1680;48.106;11.708;2023-11-19T05:50:57;95400.25;;;10.23;100.00
1832;BME280;1680;48.106;11.708;2023-11-19T05:53:25;95403.34;;;10.32;100.00
1832;BME280;1680;48.106;11.708;2023-11-19T05:55:53;95388.38;;;10.21;100.00
1832;BME280;1680;48.106;11.708;2023-11-19T05:58:23;95406.63;;;10.27;100.00
1832;BME280;1680;48.106;11.708;2023-11-19T06:00:53;95407.88;;;10.25;100.00
1832;BME280;1680;48.106;11.708;2023-11-19T06:03:21;95406.28;;;10.24;100.00
1832;BME280;1680;48.106;11.708;2023-11-19T06:05:48;95413.03;;;10.31;100.00
1832;BME280;1680;48.106;11.708;2023-11-19T06:08:15;95388.50;;;10.26;100.00
1832;BME280;1680;48.106;11.708;2023-11-19T06:10:43;95384.81;;;10.15;100.00
1832;BME280;1680;48.106;11.708;2023-11-19T06:13:13;95397.38;;;10.25;100.00
1832;BME280;1680;48.106;11.708;2023-11-19T06:15:41;95366.50;;;9.97;100.00
1832;BME280;1680;48.106;11.708;2023-11-19T06:18:08;95393.84;;;10.19;100.00
1832;BME280;1680;48.106;11.708;2023-11-19T06:20:37;95385.06;;;10.14;100.00
1832;BME280;1680;48.106;11.708;2023-11-19T06:23:04;95404.13;;;10.32;100.00
1832;BME280;1680;48.106;11.708;2023-11-19T06:25:32;95418.97;;;10.38;100.00
1832;BME280;1680;48.106;11.708;2023-11-19T06:28:00;95402.22;;;10.39;100.00
1832;BME280;1680;48.106;11.708;2023-11-19T06:30:29;95391.94;;;10.38;100.00
1832;BME280;1680;48.106;11.708;2023-11-19T06:32:57;95392.06;;;10.31;100.00
1832;BME280;1680;48.106;11.708;2023-11-19T06:35:24;95398.00;;;10.38;100.00
1832;BME280;1680;48.106;11.708;2023-11-19T06:37:52;95398.13;;;10.43;100.00
1832;BME280;1680;48.106;11.708;2023-11-19T06:40:20;95408.50;;;10.50;100.00
1832;BME280;1680;48.106;11.708;2023-11-19T06:42:47;95406.94;;;10.49;100.00
1832;BME280;1680;48.106;11.708;2023-11-19T06:45:14;95398.94;;;10.44;100.00
1832;BME280;1680;48.106;11.708;2023-11-19T06:47:43;95391.50;;;10.41;100.00
1832;BME280;1680;48.106;11.708;2023-11-19T06:50:10;95402.34;;;10.44;100.00
1832;BME280;1680;48.106;11.708;2023-11-19T06:52:37;95410.34;;;10.49;100.00
1832;BME280;1680;48.106;11.708;2023-11-19T06:55:05;95414.44;;;10.45;100.00
1832;BME280;1680;48.106;11.708;2023-11-19T06:57:33;95416.94;;;10.40;100.00
1832;BME280;1680;48.106;11.708;2023-11-19T07:00:00;95404.53;;;10.47;100.00
1832;BME280;1680;48.106;11.708;2023-11-19T07:02:27;95414.69;;;10.55;100.00
1832;BME280;1680;48.106;11.708;2023-11-19T07:04:55;95408.44;;;10.67;100.00
1832;BME280;1680;48.106;11.708;2023-11-19T07:07:22;95431.13;;;10.62;100.00
1832;BME280;1680;48.106;11.708;2023-11-19T07:09:50;95420.19;;;10.65;100.00
1832;BME280;1680;48.106;11.708;2023-11-19T07:12:17;95414.81;;;10.49;100.00
1832;BME280;1680;48.106;11.708;2023-11-19T07:14:45;95436.47;;;10.56;100.00
1832;BME280;1680;48.106;11.708;2023-11-19T07:17:12;95428.28;;;10.63;100.00
1832;BME280;1680;48.106;11.708;2023-11-19T07:19:40;95423.13;;;10.57;100.00
1832;BME280;1680;48.106;11.708;2023-11-19T07:22:09;95426.56;;;10.58;100.00
1832;BME280;1680;48.106;11.708;2023-11-19T07:24:38;95433.88;;;10.67;100.00
1832;BME280;1680;48.106;11.708;2023-11-19T07:27:07;95424.53;;;10.71;100.00
1832;BME280;1680;48.106;11.708;2023-11-19T07:29:35;95432.72;;;10.63;100.00
1832;BME280;1680;48.106;11.708;2023-11-19T07:32:02;95440.72;;;10.68;100.00
1832;BME280;1680;48.106;11.708;2023-11-19T07:34:30;95441.16;;;10.65;100.00
1832;BME280;1680;48.106;11.708;2023-11-19T07:36:57;95441.06;;;10.71;100.00
1832;BME280;1680;48.106;11.708;2023-11-19T07:39:29;95443.34;;;10.79;100.00
1832;BME280;1680;48.106;11.708;2023-11-19T07:41:56;95448.00;;;10.66;100.00
1832;BME280;1680;48.106;11.708;2023-11-19T07:44:23;95450.66;;;10.89;100.00
1832;BME280;1680;48.106;11.708;2023-11-19T07:46:51;95461.75;;;10.91;100.00
1832;BME280;1680;48.106;11.708;2023-11-19T07:49:19;95461.28;;;10.94;100.00
1832;BME280;1680;48.106;11.708;2023-11-19T07:51:46;95465.81;;;10.87;100.00
1832;BME280;1680;48.106;11.708;2023-11-19T07:54:14;95465.81;;;10.87;100.00
1832;BME280;1680;48.106;11.708;2023-11-19T07:56:42;95472.22;;;10.91;100.00
1832;BME280;1680;48.106;11.708;2023-11-19T07:59:09;95456.50;;;10.91;100.00
1832;BME280;1680;48.106;11.708;2023-11-19T08:01:37;95460.06;;;11.08;100.00
1832;BME280;1680;48.106;11.708;2023-11-19T08:04:04;95466.78;;;11.04;100.00
1832;BME280;1680;48.106;11.708;2023-11-19T08:06:32;95462.91;;;10.95;100.00
1832;BME280;1680;48.106;11.708;2023-11-19T08:08:59;95457.41;;;10.96;100.00
1832;BME280;1680;48.106;11.708;2023-11-19T08:11:26;95465.63;;;10.88;100.00
1832;BME280;1680;48.106;11.708;2023-11-19T08:13:55;95472.13;;;10.97;100.00
1832;BME280;1680;48.106;11.708;2023-11-19T08:16:22;95464.50;;;10.96;100.00
1832;BME280;1680;48.106;11.708;2023-11-19T08:18:49;95472.41;;;11.07;100.00
1832;BME280;1680;48.106;11.708;2023-11-19T08:21:16;95467.59;;;11.04;100.00
1832;BME280;1680;48.106;11.708;2023-11-19T08:23:43;95471.38;;;11.08;100.00
1832;BME280;1680;48.106;11.708;2023-11-19T08:26:11;95467.78;;;11.03;100.00
1832;BME280;1680;48.106;11.708;2023-11-19T08:28:38;95468.16;;;11.18;100.00
1832;BME280;1680;48.106;11.708;2023-11-19T08:31:06;95456.88;;;11.17;100.00
1832;BME280;1680;48.106;11.708;2023-11-19T08:33:33;95477.75;;;11.24;100.00
1832;BME280;1680;48.106;11.708;2023-11-19T08:36:01;95465.09;;;11.21;100.00
1832;BME280;1680;48.106;11.708;2023-11-19T08:38:29;95470.78;;;11.18;100.00
1832;BME280;1680;48.106;11.708;2023-11-19T08:40:56;95477.19;;;11.33;100.00
1832;BME280;1680;48.106;11.708;2023-11-19T08:43:25;95480.28;;;11.42;100.00
1832;BME280;1680;48.106;11.708;2023-11-19T08:45:52;95473.88;;;11.38;100.00
1832;BME280;1680;48.106;11.708;2023-11-19T08:48:20;95471.59;;;11.30;100.00
1832;BME280;1680;48.106;11.708;2023-11-19T08:50:47;95472.28;;;11.48;100.00
1832;BME280;1680;48.106;11.708;2023-11-19T08:53:15;95452.22;;;11.31;100.00
1832;BME280;1680;48.106;11.708;2023-11-19T08:55:42;95474.47;;;11.51;100.00
1832;BME280;1680;48.106;11.708;2023-11-19T08:58:09;95473.31;;;11.47;100.00
1832;BME280;1680;48.106;11.708;2023-11-19T09:00:36;95480.94;;;11.49;100.00
1832;BME280;1680;48.106;11.708;2023-11-19T09:03:03;95475.69;;;11.49;100.00
1832;BME280;1680;48.106;11.708;2023-11-19T09:05:31;95476.88;;;11.64;100.00
1832;BME280;1680;48.106;11.708;2023-11-19T09:07:59;95483.47;;;11.44;100.00
1832;BME280;1680;48.106;11.708;2023-11-19T09:10:26;95478.31;;;11.49;100.00
1832;BME280;1680;48.106;11.708;2023-11-19T09:12:54;95474.94;;;11.60;100.00
1832;BME280;1680;48.106;11.708;2023-11-19T09:15:21;95471.50;;;11.59;100.00
1832;BME280;1680;48.106;11.708;2023-11-19T09:17:49;95467.53;;;11.68;100.00
1832;BME280;1680;48.106;11.708;2023-11-19T09:20:16;95471.84;;;11.62;100.00
1832;BME280;1680;48.106;11.708;2023-11-19T09:22:45;95478.25;;;11.66;100.00
1832;BME280;1680;48.106;11.708;2023-11-19T09:25:12;95491.72;;;11.59;100.00
1832;BME280;1680;48.106;11.708;2023-11-19T09:27:42;95488.09;;;11.60;100.00
1832;BME280;1680;48.106;11.708;2023-11-19T09:30:10;95487.97;;;11.66;100.00
1832;BME280;1680;48.106;11.708;2023-11-19T09:32:38;95492.28;;;11.83;100.00
1832;BME280;1680;48.106;11.708;2023-11-19T09:35:06;95487.72;;;11.90;100.00
1832;BME280;1680;48.106;11.708;2023-11-19T09:37:33;95485.19;;;11.84;100.00
1832;BME280;1680;48.106;11.708;2023-11-19T09:40:01;95493.88;;;11.96;100.00
1832;BME280;1680;48.106;11.708;2023-11-19T09:42:29;95492.59;;;11.98;100.00
1832;BME280;1680;48.106;11.708;2023-11-19T09:44:59;95439.88;;;11.65;100.00
1832;BME280;1680;48.106;11.708;2023-11-19T09:47:26;95495.47;;;11.97;100.00
1832;BME280;1680;48.106;11.708;2023-11-19T09:49:55;95493.50;;;12.04;100.00
1832;BME280;1680;48.106;11.708;2023-11-19T09:52:22;95484.56;;;12.16;100.00
1832;BME280;1680;48.106;11.708;2023-11-19T09:54:50;95488.81;;;12.06;100.00
1832;BME280;1680;48.106;11.708;2023-11-19T09:57:18;95481.16;;;12.04;100.00
1832;BME280;1680;48.106;11.708;2023-11-19T09:59:46;95476.34;;;12.13;100.00
1832;BME280;1680;48.106;11.708;2023-11-19T10:02:14;95475.50;;;12.24;100.00
1832;BME280;1680;48.106;11.708;2023-11-19T10:04:43;95488.50;;;12.30;100.00
1832;BME280;1680;48.106;11.708;2023-11-19T10:07:12;95482.41;;;12.41;100.00
1832;BME280;1680;48.106;11.708;2023-11-19T10:09:39;95470.28;;;12.40;100.00
1832;BME280;1680;48.106;11.708;2023-11-19T10:12:06;95461.38;;;12.41;100.00
1832;BME280;1680;48.106;11.708;2023-11-19T10:14:37;95436.66;;;12.42;100.00
1832;BME280;1680;48.106;11.708;2023-11-19T10:17:07;95454.41;;;12.63;100.00
1832;BME280;1680;48.106;11.708;2023-11-19T10:19:34;95448.66;;;12.66;100.00
1832;BME280;1680;48.106;11.708;2023-11-19T10:22:04;95441.44;;;12.73;100.00
1832;BME280;1680;48.106;11.708;2023-11-19T10:24:32;95446.69;;;12.73;100.00
1832;BME280;1680;48.106;11.708;2023-11-19T10:26:59;95446.06;;;12.82;100.00
1832;BME280;1680;48.106;11.708;2023-11-19T10:29:29;95446.38;;;12.69;100.00
1832;BME280;1680;48.106;11.708;2023-11-19T10:31:58;95448.84;;;12.76;100.00
1832;BME280;1680;48.106;11.708;2023-11-19T10:34:26;95440.00;;;12.82;100.00
1832;BME280;1680;48.106;11.708;2023-11-19T10:36:55;95430.66;;;12.74;100.00
1832;BME280;1680;48.106;11.708;2023-11-19T10:39:22;95428.66;;;12.93;100.00
1832;BME280;1680;48.106;11.708;2023-11-19T10:41:50;95424.47;;;12.97;100.00
1832;BME280;1680;48.106;11.708;2023-11-19T10:44:41;95424.00;;;13.00;100.00
1832;BME280;1680;48.106;11.708;2023-11-19T10:47:10;95422.59;;;13.09;100.00
1832;BME280;1680;48.106;11.708;2023-11-19T10:49:39;95423.03;;;13.22;100.00
1832;BME280;1680;48.106;11.708;2023-11-19T10:52:08;95417.13;;;13.32;100.00
1832;BME280;1680;48.106;11.708;2023-11-19T10:54:37;95415.81;;;13.51;100.00
1832;BME280;1680;48.106;11.708;2023-11-19T10:57:08;95415.47;;;13.63;100.00
1832;BME280;1680;48.106;11.708;2023-11-19T10:59:37;95417.97;;;13.54;100.00
1832;BME280;1680;48.106;11.708;2023-11-19T11:02:07;95405.72;;;13.64;100.00
1832;BME280;1680;48.106;11.708;2023-11-19T11:04:40;95408.44;;;13.69;100.00
1832;BME280;1680;48.106;11.708;2023-11-19T11:07:08;95408.72;;;13.72;100.00
1832;BME280;1680;48.106;11.708;2023-11-19T11:09:35;95401.38;;;13.74;100.00
1832;BME280;1680;48.106;11.708;2023-11-19T11:12:04;95416.25;;;13.64;100.00
1832;BME280;1680;48.106;11.708;2023-11-19T11:14:34;95398.13;;;13.67;100.00
1832;BME280;1680;48.106;11.708;2023-11-19T11:17:06;95407.09;;;13.66;100.00
1832;BME280;1680;48.106;11.708;2023-11-19T11:19:35;95373.03;;;13.44;100.00
1832;BME280;1680;48.106;11.708;2023-11-19T11:22:05;95402.22;;;13.58;100.00
1832;BME280;1680;48.106;11.708;2023-11-19T11:24:53;95402.19;;;13.54;100.00
1832;BME280;1680;48.106;11.708;2023-11-19T11:27:46;95408.03;;;13.60;100.00
1832;BME280;1680;48.106;11.708;2023-11-19T11:30:25;95393.09;;;13.66;100.00
1832;BME280;1680;48.106;11.708;2023-11-19T11:33:04;95398.56;;;13.59;100.00
1832;BME280;1680;48.106;11.708;2023-11-19T11:35:42;95402.78;;;13.60;100.00
1832;BME280;1680;48.106;11.708;2023-11-19T11:38:14;95374.16;;;13.48;100.00
1832;BME280;1680;48.106;11.708;2023-11-19T11:40:42;95403.97;;;13.69;100.00
1832;BME280;1680;48.106;11.708;2023-11-19T11:46:09;95377.84;;;13.89;100.00
1832;BME280;1680;48.106;11.708;2023-11-19T11:48:57;95383.47;;;13.76;100.00
1832;BME280;1680;48.106;11.708;2023-11-19T11:52:02;95379.81;;;13.77;100.00
1832;BME280;1680;48.106;11.708;2023-11-19T11:54:31;95373.31;;;13.85;100.00
1832;BME280;1680;48.106;11.708;2023-11-19T11:57:07;95395.13;;;13.80;100.00
1832;BME280;1680;48.106;11.708;2023-11-19T11:59:46;95392.06;;;13.88;100.00
1832;BME280;1680;48.106;11.708;2023-11-19T12:02:15;95381.03;;;13.91;100.00
1832;BME280;1680;48.106;11.708;2023-11-19T12:04:43;95373.69;;;13.93;100.00
1832;BME280;1680;48.106;11.708;2023-11-19T12:07:12;95378.47;;;13.96;100.00
1832;BME280;1680;48.106;11.708;2023-11-19T12:09:42;95377.16;;;13.99;100.00
1832;BME280;1680;48.106;11.708;2023-11-19T12:12:21;95388.06;;;14.07;100.00
1832;BME280;1680;48.106;11.708;2023-11-19T12:15:07;95372.81;;;14.09;100.00
1832;BME280;1680;48.106;11.708;2023-11-19T12:17:40;95386.41;;;14.01;100.00
1832;BME280;1680;48.106;11.708;2023-11-19T12:20:10;95375.38;;;14.04;100.00
1832;BME280;1680;48.106;11.708;2023-11-19T12:22:38;95376.47;;;14.08;100.00
1832;BME280;1680;48.106;11.708;2023-11-19T12:25:08;95384.53;;;14.18;100.00
1832;BME280;1680;48.106;11.708;2023-11-19T12:27:36;95383.06;;;14.27;100.00
1832;BME280;1680;48.106;11.708;2023-11-19T12:30:05;95365.44;;;14.33;100.00
1832;BME280;1680;48.106;11.708;2023-11-19T12:32:39;95376.91;;;14.48;100.00
1832;BME280;1680;48.106;11.708;2023-11-19T12:35:07;95369.56;;;14.50;100.00
1832;BME280;1680;48.106;11.708;2023-11-19T12:37:40;95371.69;;;14.53;100.00
1832;BME280;1680;48.106;11.708;2023-11-19T12:40:14;95357.41;;;14.49;100.00
1832;BME280;1680;48.106;11.708;2023-11-19T12:42:43;95360.03;;;14.49;100.00
1832;BME280;1680;48.106;11.708;2023-11-19T12:45:10;95360.50;;;14.41;100.00
1832;BME280;1680;48.106;11.708;2023-11-19T12:47:38;95325.34;;;14.09;100.00
1832;BME280;1680;48.106;11.708;2023-11-19T12:50:06;95343.72;;;14.26;100.00
1832;BME280;1680;48.106;11.708;2023-11-19T12:52:34;95350.66;;;14.32;100.00
1832;BME280;1680;48.106;11.708;2023-11-19T12:55:02;95348.91;;;14.42;100.00
1832;BME280;1680;48.106;11.708;2023-11-19T12:57:37;95346.75;;;14.39;100.00
1832;BME280;1680;48.106;11.708;2023-11-19T13:00:06;95351.50;;;14.37;100.00
1832;BME280;1680;48.106;11.708;2023-11-19T13:02:46;95341.00;;;14.42;100.00
1832;BME280;1680;48.106;11.708;2023-11-19T13:05:24;95343.31;;;14.39;100.00
1832;BME280;1680;48.106;11.708;2023-11-19T13:07:58;95347.50;;;14.35;100.00
1832;BME280;1680;48.106;11.708;2023-11-19T13:10:25;95341.19;;;14.36;100.00
1832;BME280;1680;48.106;11.708;2023-11-19T13:13:04;95341.44;;;14.34;100.00
1832;BME280;1680;48.106;11.708;2023-11-19T13:15:32;95344.81;;;14.30;100.00